sensor_id;sensor_type;location;lat;lon;timestamp;noise_LAeq;noise_LA_min;noise_LA_max;noise_LA01;noise_LA95
64545;Laerm;50936;51.660;5.616;2023-03-01T00:01:39;42.68;36.20;54.88;;
64545;Laerm;50936;51.660;5.616;2023-03-01T00:04:06;42.33;38.37;59.12;;
64545;Laerm;50936;51.660;5.616;2023-03-01T00:06:33;54.35;38.21;72.93;;
64545;Laerm;50936;51.660;5.616;2023-03-01T00:09:00;46.79;38.52;61.32;;
64545;Laerm;50936;51.660;5.616;2023-03-01T00:11:30;43.21;38.37;59.46;;
64545;Laerm;50936;51.660;5.616;2023-03-01T00:14:00;53.35;39.70;68.35;;
64545;Laerm;50936;51.660;5.616;2023-03-01T00:16:38;52.97;37.88;66.82;;
64545;Laerm;50936;51.660;5.616;2023-03-01T00:19:19;48.32;38.67;62.99;;
64545;Laerm;50936;51.660;5.616;2023-03-01T00:21:46;55.19;39.46;68.90;;
64545;Laerm;50936;51.660;5.616;2023-03-01T00:24:16;49.16;39.21;62.24;;
64545;Laerm;50936;51.660;5.616;2023-03-01T00:26:43;49.83;38.21;65.74;;
64545;Laerm;50936;51.660;5.616;2023-03-01T00:29:10;44.73;38.05;59.23;;
64545;Laerm;50936;51.660;5.616;2023-03-01T00:31:37;56.55;38.52;72.91;;
64545;Laerm;50936;51.660;5.616;2023-03-01T00:34:05;54.98;39.34;71.26;;
64545;Laerm;50936;51.660;5.616;2023-03-01T00:36:35;51.75;38.05;66.70;;
64545;Laerm;50936;51.660;5.616;2023-03-01T00:39:07;51.38;36.69;65.42;;
64545;Laerm;50936;51.660;5.616;2023-03-01T00:41:34;42.90;38.05;55.89;;
64545;Laerm;50936;51.660;5.616;2023-03-01T00:44:01;45.83;38.81;55.84;;
64545;Laerm;50936;51.660;5.616;2023-03-01T00:46:28;47.26;37.70;60.96;;
64545;Laerm;50936;51.660;5.616;2023-03-01T00:48:57;43.31;37.88;54.30;;
64545;Laerm;50936;51.660;5.616;2023-03-01T00:51:27;44.25;38.37;55.49;;
64545;Laerm;50936;51.660;5.616;2023-03-01T00:53:58;42.47;38.21;55.07;;
64545;Laerm;50936;51.660;5.616;2023-03-01T00:56:26;49.24;37.88;62.92;;
64545;Laerm;50936;51.660;5.616;2023-03-01T00:58:54;45.94;37.70;60.27;;
64545;Laerm;50936;51.660;5.616;2023-03-01T01:01:25;51.20;38.52;67.68;;
64545;Laerm;50936;51.660;5.616;2023-03-01T01:03:58;55.20;38.52;71.52;;
64545;Laerm;50936;51.660;5.616;2023-03-01T01:06:33;43.12;37.12;58.89;;
64545;Laerm;50936;51.660;5.616;2023-03-01T01:09:01;44.17;37.88;61.15;;
64545;Laerm;50936;51.660;5.616;2023-03-01T01:11:29;44.12;38.52;61.47;;
64545;Laerm;50936;51.660;5.616;2023-03-01T01:13:58;55.67;38.37;75.18;;
64545;Laerm;50936;51.660;5.616;2023-03-01T01:16:27;43.34;38.21;55.55;;
64545;Laerm;50936;51.660;5.616;2023-03-01T01:18:56;43.03;38.21;58.97;;
64545;Laerm;50936;51.660;5.616;2023-03-01T01:21:24;51.06;38.95;66.77;;
64545;Laerm;50936;51.660;5.616;2023-03-01T01:23:52;44.94;37.70;56.26;;
64545;Laerm;50936;51.660;5.616;2023-03-01T01:26:33;43.21;37.70;55.97;;
64545;Laerm;50936;51.660;5.616;2023-03-01T01:29:03;42.05;37.88;52.52;;
64545;Laerm;50936;51.660;5.616;2023-03-01T01:31:33;42.25;38.05;51.75;;
64545;Laerm;50936;51.660;5.616;2023-03-01T01:34:03;42.33;37.70;56.69;;
64545;Laerm;50936;51.660;5.616;2023-03-01T01:36:31;42.52;37.12;64.29;;
64545;Laerm;50936;51.660;5.616;2023-03-01T01:38:59;42.91;38.37;57.78;;
64545;Laerm;50936;51.660;5.616;2023-03-01T01:41:28;43.73;38.60;54.12;;
64545;Laerm;50936;51.660;5.616;2023-03-01T01:44:29;44.06;37.70;57.39;;
64545;Laerm;50936;51.660;5.616;2023-03-01T01:47:06;43.17;38.37;64.34;;
64545;Laerm;50936;51.660;5.616;2023-03-01T01:49:42;42.71;38.37;50.37;;
64545;Laerm;50936;51.660;5.616;2023-03-01T01:55:21;42.80;38.05;57.34;;
64545;Laerm;50936;51.660;5.616;2023-03-01T01:57:58;42.56;38.05;54.96;;
64545;Laerm;50936;51.660;5.616;2023-03-01T02:00:29;42.80;38.81;54.35;;
64545;Laerm;50936;51.660;5.616;2023-03-01T02:03:10;46.50;38.67;64.32;;
64545;Laerm;50936;51.660;5.616;2023-03-01T02:08:26;43.49;38.81;53.86;;
64545;Laerm;50936;51.660;5.616;2023-03-01T02:10:55;42.80;38.52;55.59;;
64545;Laerm;50936;51.660;5.616;2023-03-01T02:13:23;44.06;39.58;53.71;;
64545;Laerm;50936;51.660;5.616;2023-03-01T02:15:50;55.98;38.52;73.23;;
64545;Laerm;50936;51.660;5.616;2023-03-01T02:18:20;43.11;38.21;56.71;;
64545;Laerm;50936;51.660;5.616;2023-03-01T02:24:24;42.98;38.05;58.72;;
64545;Laerm;50936;51.660;5.616;2023-03-01T02:26:55;43.98;36.69;62.88;;
64545;Laerm;50936;51.660;5.616;2023-03-01T02:29:24;44.79;37.88;61.77;;
64545;Laerm;50936;51.660;5.616;2023-03-01T02:31:54;43.18;38.05;57.79;;
64545;Laerm;50936;51.660;5.616;2023-03-01T02:34:26;44.95;38.52;62.99;;
64545;Laerm;50936;51.660;5.616;2023-03-01T02:36:58;46.89;35.94;65.84;;
64545;Laerm;50936;51.660;5.616;2023-03-01T02:39:39;48.43;38.95;68.58;;
64545;Laerm;50936;51.660;5.616;2023-03-01T02:42:15;44.56;38.37;60.16;;
64545;Laerm;50936;51.660;5.616;2023-03-01T02:44:44;42.94;38.52;61.56;;
64545;Laerm;50936;51.660;5.616;2023-03-01T02:47:12;43.43;36.91;62.47;;
64545;Laerm;50936;51.660;5.616;2023-03-01T02:49:40;46.16;36.91;64.67;;
64545;Laerm;50936;51.660;5.616;2023-03-01T02:52:26;44.62;38.81;63.66;;
64545;Laerm;50936;51.660;5.616;2023-03-01T02:55:21;44.11;38.67;62.17;;
64545;Laerm;50936;51.660;5.616;2023-03-01T02:57:48;43.46;38.95;58.25;;
64545;Laerm;50936;51.660;5.616;2023-03-01T03:00:32;45.86;39.21;60.39;;
64545;Laerm;50936;51.660;5.616;2023-03-01T03:03:01;42.97;38.67;56.82;;
64545;Laerm;50936;51.660;5.616;2023-03-01T03:05:31;46.16;38.37;62.62;;
64545;Laerm;50936;51.660;5.616;2023-03-01T03:08:01;43.79;38.52;61.80;;
64545;Laerm;50936;51.660;5.616;2023-03-01T03:10:39;43.63;37.88;60.75;;
64545;Laerm;50936;51.660;5.616;2023-03-01T03:13:14;55.86;39.21;79.20;;
64545;Laerm;50936;51.660;5.616;2023-03-01T03:15:43;52.26;39.08;68.62;;
64545;Laerm;50936;51.660;5.616;2023-03-01T03:18:14;54.89;39.46;71.36;;
64545;Laerm;50936;51.660;5.616;2023-03-01T03:20:43;50.67;39.58;80.69;;
64545;Laerm;50936;51.660;5.616;2023-03-01T03:23:10;43.89;38.21;61.39;;
64545;Laerm;50936;51.660;5.616;2023-03-01T03:25:37;54.40;39.70;69.48;;
64545;Laerm;50936;51.660;5.616;2023-03-01T03:28:07;43.72;39.34;59.19;;
64545;Laerm;50936;51.660;5.616;2023-03-01T03:30:40;52.98;38.99;67.21;;
64545;Laerm;50936;51.660;5.616;2023-03-01T03:33:09;44.38;37.88;55.95;;
64545;Laerm;50936;51.660;5.616;2023-03-01T03:35:48;49.71;38.95;64.26;;
64545;Laerm;50936;51.660;5.616;2023-03-01T03:38:18;43.14;38.67;61.02;;
64545;Laerm;50936;51.660;5.616;2023-03-01T03:41:07;48.75;38.81;63.46;;
64545;Laerm;50936;51.660;5.616;2023-03-01T03:43:38;54.07;39.46;71.28;;
64545;Laerm;50936;51.660;5.616;2023-03-01T03:46:06;43.54;38.81;56.75;;
64545;Laerm;50936;51.660;5.616;2023-03-01T03:48:40;44.28;39.46;64.64;;
64545;Laerm;50936;51.660;5.616;2023-03-01T03:51:15;58.22;41.06;72.87;;
64545;Laerm;50936;51.660;5.616;2023-03-01T03:53:44;43.83;40.03;49.62;;
64545;Laerm;50936;51.660;5.616;2023-03-01T03:56:12;53.59;39.58;67.67;;
64545;Laerm;50936;51.660;5.616;2023-03-01T03:58:39;48.21;38.67;59.58;;
64545;Laerm;50936;51.660;5.616;2023-03-01T04:01:06;49.55;39.70;62.98;;
64545;Laerm;50936;51.660;5.616;2023-03-01T04:03:34;57.59;40.98;71.67;;
64545;Laerm;50936;51.660;5.616;2023-03-01T04:06:02;53.49;40.71;66.40;;
64545;Laerm;50936;51.660;5.616;2023-03-01T04:08:30;52.30;39.92;67.77;;
64545;Laerm;50936;51.660;5.616;2023-03-01T04:11:03;57.45;40.13;73.37;;
64545;Laerm;50936;51.660;5.616;2023-03-01T04:13:53;45.09;40.53;56.38;;
64545;Laerm;50936;51.660;5.616;2023-03-01T04:16:21;52.42;41.53;75.87;;
64545;Laerm;50936;51.660;5.616;2023-03-01T04:18:49;55.47;40.98;70.77;;
64545;Laerm;50936;51.660;5.616;2023-03-01T04:21:17;50.30;41.06;68.00;;
64545;Laerm;50936;51.660;5.616;2023-03-01T04:23:47;50.58;39.34;66.76;;
64545;Laerm;50936;51.660;5.616;2023-03-01T04:26:14;50.57;41.06;65.52;;
64545;Laerm;50936;51.660;5.616;2023-03-01T04:28:42;56.27;41.96;70.40;;
64545;Laerm;50936;51.660;5.616;2023-03-01T04:31:16;53.90;41.96;66.68;;
64545;Laerm;50936;51.660;5.616;2023-03-01T04:33:51;56.01;41.55;70.13;;
64545;Laerm;50936;51.660;5.616;2023-03-01T04:36:21;54.82;40.71;68.48;;
64545;Laerm;50936;51.660;5.616;2023-03-01T04:38:49;52.63;42.29;67.52;;
64545;Laerm;50936;51.660;5.616;2023-03-01T04:41:20;57.31;43.34;70.60;;
64545;Laerm;50936;51.660;5.616;2023-03-01T04:43:48;48.98;41.30;58.84;;
64545;Laerm;50936;51.660;5.616;2023-03-01T04:46:18;56.25;41.75;68.59;;
64545;Laerm;50936;51.660;5.616;2023-03-01T04:48:46;54.48;42.03;69.17;;
64545;Laerm;50936;51.660;5.616;2023-03-01T04:51:14;47.36;40.53;66.00;;
64545;Laerm;50936;51.660;5.616;2023-03-01T04:53:43;56.52;43.34;75.16;;
64545;Laerm;50936;51.660;5.616;2023-03-01T04:56:12;46.88;41.53;60.88;;
64545;Laerm;50936;51.660;5.616;2023-03-01T04:58:41;48.90;41.96;60.79;;
64545;Laerm;50936;51.660;5.616;2023-03-01T05:01:18;47.48;40.98;57.43;;
64545;Laerm;50936;51.660;5.616;2023-03-01T05:03:50;57.13;42.22;70.40;;
64545;Laerm;50936;51.660;5.616;2023-03-01T05:06:19;59.33;44.39;74.45;;
64545;Laerm;50936;51.660;5.616;2023-03-01T05:08:46;49.06;42.59;58.78;;
64545;Laerm;50936;51.660;5.616;2023-03-01T05:11:13;56.57;43.63;69.68;;
64545;Laerm;50936;51.660;5.616;2023-03-01T05:13:40;55.98;41.61;70.86;;
64545;Laerm;50936;51.660;5.616;2023-03-01T05:16:08;57.44;44.27;68.78;;
64545;Laerm;50936;51.660;5.616;2023-03-01T05:18:39;61.06;42.98;74.97;;
64545;Laerm;50936;51.660;5.616;2023-03-01T05:21:12;53.60;43.39;67.49;;
64545;Laerm;50936;51.660;5.616;2023-03-01T05:23:39;59.16;42.29;72.30;;
64545;Laerm;50936;51.660;5.616;2023-03-01T05:26:08;59.87;47.28;75.34;;
64545;Laerm;50936;51.660;5.616;2023-03-01T05:28:52;63.33;45.48;76.23;;
64545;Laerm;50936;51.660;5.616;2023-03-01T05:31:23;56.61;44.11;73.27;;
64545;Laerm;50936;51.660;5.616;2023-03-01T05:33:50;60.27;42.22;73.01;;
64545;Laerm;50936;51.660;5.616;2023-03-01T05:36:17;59.05;44.73;71.43;;
64545;Laerm;50936;51.660;5.616;2023-03-01T05:38:45;60.83;46.20;72.36;;
64545;Laerm;50936;51.660;5.616;2023-03-01T05:41:15;60.66;46.18;73.55;;
64545;Laerm;50936;51.660;5.616;2023-03-01T05:43:43;57.11;45.20;70.22;;
64545;Laerm;50936;51.660;5.616;2023-03-01T05:46:12;55.47;44.31;67.82;;
64545;Laerm;50936;51.660;5.616;2023-03-01T05:48:40;60.32;47.22;74.40;;
64545;Laerm;50936;51.660;5.616;2023-03-01T05:51:07;63.32;49.00;81.25;;
64545;Laerm;50936;51.660;5.616;2023-03-01T05:53:33;60.48;46.05;72.01;;
64545;Laerm;50936;51.660;5.616;2023-03-01T05:56:04;59.25;46.43;70.74;;
64545;Laerm;50936;51.660;5.616;2023-03-01T05:58:31;59.64;45.20;71.00;;
64545;Laerm;50936;51.660;5.616;2023-03-01T06:00:58;60.31;46.52;76.59;;
64545;Laerm;50936;51.660;5.616;2023-03-01T06:03:26;67.79;45.48;93.82;;
64545;Laerm;50936;51.660;5.616;2023-03-01T06:05:57;56.90;46.76;71.35;;
64545;Laerm;50936;51.660;5.616;2023-03-01T06:08:24;60.51;47.06;69.27;;
64545;Laerm;50936;51.660;5.616;2023-03-01T06:10:54;61.59;46.15;73.14;;
64545;Laerm;50936;51.660;5.616;2023-03-01T06:13:21;62.17;48.81;72.73;;
64545;Laerm;50936;51.660;5.616;2023-03-01T06:15:51;60.60;46.23;70.24;;
64545;Laerm;50936;51.660;5.616;2023-03-01T06:18:18;61.97;47.55;73.04;;
64545;Laerm;50936;51.660;5.616;2023-03-01T06:20:53;60.19;48.18;78.26;;
64545;Laerm;50936;51.660;5.616;2023-03-01T06:23:21;62.13;50.00;72.38;;
64545;Laerm;50936;51.660;5.616;2023-03-01T06:25:48;63.52;51.93;72.93;;
64545;Laerm;50936;51.660;5.616;2023-03-01T06:28:16;63.29;51.42;73.65;;
64545;Laerm;50936;51.660;5.616;2023-03-01T06:30:43;63.95;49.59;79.40;;
64545;Laerm;50936;51.660;5.616;2023-03-01T06:33:10;63.72;48.26;81.04;;
64545;Laerm;50936;51.660;5.616;2023-03-01T06:35:37;63.43;50.41;74.06;;
64545;Laerm;50936;51.660;5.616;2023-03-01T06:38:04;62.27;49.80;74.93;;
64545;Laerm;50936;51.660;5.616;2023-03-01T06:40:32;62.18;50.78;78.23;;
64545;Laerm;50936;51.660;5.616;2023-03-01T06:43:01;63.68;51.33;73.29;;
64545;Laerm;50936;51.660;5.616;2023-03-01T06:45:28;63.70;51.40;74.85;;
64545;Laerm;50936;51.660;5.616;2023-03-01T06:48:06;61.39;50.61;77.74;;
64545;Laerm;50936;51.660;5.616;2023-03-01T06:50:35;65.80;52.06;93.15;;
64545;Laerm;50936;51.660;5.616;2023-03-01T06:53:02;65.78;53.36;77.23;;
64545;Laerm;50936;51.660;5.616;2023-03-01T06:55:30;63.75;48.87;73.18;;
64545;Laerm;50936;51.660;5.616;2023-03-01T06:58:02;64.50;51.42;79.00;;
64545;Laerm;50936;51.660;5.616;2023-03-01T07:00:30;64.31;51.09;71.72;;
64545;Laerm;50936;51.660;5.616;2023-03-01T07:03:01;64.35;51.84;84.26;;
64545;Laerm;50936;51.660;5.616;2023-03-01T07:05:30;65.18;51.92;79.10;;
64545;Laerm;50936;51.660;5.616;2023-03-01T07:07:57;65.61;53.43;74.24;;
64545;Laerm;50936;51.660;5.616;2023-03-01T07:10:24;65.41;50.43;76.56;;
64545;Laerm;50936;51.660;5.616;2023-03-01T07:12:55;62.88;49.18;74.26;;
64545;Laerm;50936;51.660;5.616;2023-03-01T07:15:22;69.13;51.25;83.73;;
64545;Laerm;50936;51.660;5.616;2023-03-01T07:17:49;65.85;52.02;78.06;;
64545;Laerm;50936;51.660;5.616;2023-03-01T07:20:21;63.81;49.39;80.23;;
64545;Laerm;50936;51.660;5.616;2023-03-01T07:22:53;65.92;53.55;73.78;;
64545;Laerm;50936;51.660;5.616;2023-03-01T07:25:20;64.23;49.74;74.58;;
64545;Laerm;50936;51.660;5.616;2023-03-01T07:27:52;64.39;52.71;81.99;;
64545;Laerm;50936;51.660;5.616;2023-03-01T07:30:20;64.73;54.24;72.49;;
64545;Laerm;50936;51.660;5.616;2023-03-01T07:32:47;64.23;51.31;80.43;;
64545;Laerm;50936;51.660;5.616;2023-03-01T07:35:15;66.51;55.24;79.54;;
64545;Laerm;50936;51.660;5.616;2023-03-01T07:37:42;66.39;54.44;78.04;;
64545;Laerm;50936;51.660;5.616;2023-03-01T07:40:10;64.51;51.38;74.56;;
64545;Laerm;50936;51.660;5.616;2023-03-01T07:42:37;65.53;54.94;78.88;;
64545;Laerm;50936;51.660;5.616;2023-03-01T07:45:06;65.84;54.29;79.82;;
64545;Laerm;50936;51.660;5.616;2023-03-01T07:47:33;65.26;50.86;73.87;;
64545;Laerm;50936;51.660;5.616;2023-03-01T07:50:00;64.76;54.07;75.13;;
64545;Laerm;50936;51.660;5.616;2023-03-01T07:52:28;64.37;51.25;78.07;;
64545;Laerm;50936;51.660;5.616;2023-03-01T07:54:55;65.50;52.25;73.27;;
64545;Laerm;50936;51.660;5.616;2023-03-01T07:57:23;65.60;53.74;78.28;;
64545;Laerm;50936;51.660;5.616;2023-03-01T07:59:50;63.87;51.85;73.21;;
64545;Laerm;50936;51.660;5.616;2023-03-01T08:02:16;64.76;52.76;78.30;;
64545;Laerm;50936;51.660;5.616;2023-03-01T08:04:43;63.94;51.63;78.78;;
64545;Laerm;50936;51.660;5.616;2023-03-01T08:07:10;64.98;52.86;79.76;;
64545;Laerm;50936;51.660;5.616;2023-03-01T08:09:37;67.71;53.85;93.67;;
64545;Laerm;50936;51.660;5.616;2023-03-01T08:12:05;64.73;47.04;82.81;;
64545;Laerm;50936;51.660;5.616;2023-03-01T08:14:32;68.84;48.73;90.56;;
64545;Laerm;50936;51.660;5.616;2023-03-01T08:16:59;64.83;50.09;80.10;;
64545;Laerm;50936;51.660;5.616;2023-03-01T08:19:26;61.27;48.69;73.34;;
64545;Laerm;50936;51.660;5.616;2023-03-01T08:21:54;61.98;50.49;80.39;;
64545;Laerm;50936;51.660;5.616;2023-03-01T08:24:25;63.92;52.08;73.49;;
64545;Laerm;50936;51.660;5.616;2023-03-01T08:26:52;66.99;51.29;80.21;;
64545;Laerm;50936;51.660;5.616;2023-03-01T08:29:19;65.80;50.80;78.42;;
64545;Laerm;50936;51.660;5.616;2023-03-01T08:31:47;63.45;52.38;76.53;;
64545;Laerm;50936;51.660;5.616;2023-03-01T08:34:17;63.30;53.93;71.31;;
64545;Laerm;50936;51.660;5.616;2023-03-01T08:36:46;66.21;53.84;78.91;;
64545;Laerm;50936;51.660;5.616;2023-03-01T08:39:17;63.43;49.23;76.29;;
64545;Laerm;50936;51.660;5.616;2023-03-01T08:41:46;62.18;50.84;70.72;;
64545;Laerm;50936;51.660;5.616;2023-03-01T08:44:15;65.96;50.61;79.60;;
64545;Laerm;50936;51.660;5.616;2023-03-01T08:46:47;64.29;54.77;77.71;;
64545;Laerm;50936;51.660;5.616;2023-03-01T08:49:19;65.12;49.79;77.58;;
64545;Laerm;50936;51.660;5.616;2023-03-01T08:51:47;62.59;50.83;77.91;;
64545;Laerm;50936;51.660;5.616;2023-03-01T08:54:19;65.04;50.92;74.74;;
64545;Laerm;50936;51.660;5.616;2023-03-01T08:56:47;64.72;51.96;76.53;;
64545;Laerm;50936;51.660;5.616;2023-03-01T08:59:16;65.43;55.26;74.96;;
64545;Laerm;50936;51.660;5.616;2023-03-01T09:01:44;65.15;53.72;77.70;;
64545;Laerm;50936;51.660;5.616;2023-03-01T09:04:12;61.43;49.39;70.42;;
64545;Laerm;50936;51.660;5.616;2023-03-01T09:06:40;63.21;52.57;76.23;;
64545;Laerm;50936;51.660;5.616;2023-03-01T09:09:15;65.14;50.35;78.49;;
64545;Laerm;50936;51.660;5.616;2023-03-01T09:11:45;64.23;52.57;74.58;;
64545;Laerm;50936;51.660;5.616;2023-03-01T09:14:13;65.42;53.38;79.71;;
64545;Laerm;50936;51.660;5.616;2023-03-01T09:16:41;63.44;51.89;77.08;;
64545;Laerm;50936;51.660;5.616;2023-03-01T09:19:08;63.45;49.62;78.50;;
64545;Laerm;50936;51.660;5.616;2023-03-01T09:21:35;64.61;53.25;80.35;;
64545;Laerm;50936;51.660;5.616;2023-03-01T09:24:14;64.26;51.50;73.07;;
64545;Laerm;50936;51.660;5.616;2023-03-01T09:26:42;63.59;51.40;73.70;;
64545;Laerm;50936;51.660;5.616;2023-03-01T09:29:09;65.47;55.16;78.47;;
64545;Laerm;50936;51.660;5.616;2023-03-01T09:31:37;64.26;53.33;75.72;;
64545;Laerm;50936;51.660;5.616;2023-03-01T09:34:05;65.53;56.30;81.31;;
64545;Laerm;50936;51.660;5.616;2023-03-01T09:36:33;65.01;55.63;72.36;;
64545;Laerm;50936;51.660;5.616;2023-03-01T09:39:01;65.48;53.67;75.51;;
64545;Laerm;50936;51.660;5.616;2023-03-01T09:47:20;63.66;55.28;74.95;;
64545;Laerm;50936;51.660;5.616;2023-03-01T09:50:17;69.86;54.80;84.30;;
64545;Laerm;50936;51.660;5.616;2023-03-01T09:53:04;64.14;49.35;77.13;;
64545;Laerm;50936;51.660;5.616;2023-03-01T09:59:15;65.00;52.74;77.06;;
64545;Laerm;50936;51.660;5.616;2023-03-01T10:04:50;63.70;54.78;80.18;;
64545;Laerm;50936;51.660;5.616;2023-03-01T10:10:37;62.58;50.00;75.05;;
64545;Laerm;50936;51.660;5.616;2023-03-01T10:13:22;64.70;54.75;79.67;;
64545;Laerm;50936;51.660;5.616;2023-03-01T10:16:01;66.75;52.29;80.57;;
64545;Laerm;50936;51.660;5.616;2023-03-01T10:18:32;64.65;52.09;80.90;;
64545;Laerm;50936;51.660;5.616;2023-03-01T10:21:15;64.37;52.67;86.59;;
64545;Laerm;50936;51.660;5.616;2023-03-01T10:23:43;64.45;51.01;77.65;;
64545;Laerm;50936;51.660;5.616;2023-03-01T10:26:23;62.78;52.05;72.91;;
64545;Laerm;50936;51.660;5.616;2023-03-01T10:29:06;64.30;49.34;73.44;;
64545;Laerm;50936;51.660;5.616;2023-03-01T10:31:47;65.18;52.18;80.77;;
64545;Laerm;50936;51.660;5.616;2023-03-01T10:34:28;64.78;56.60;76.77;;
64545;Laerm;50936;51.660;5.616;2023-03-01T10:37:08;63.18;55.75;77.30;;
64545;Laerm;50936;51.660;5.616;2023-03-01T10:39:35;64.33;54.04;77.72;;
64545;Laerm;50936;51.660;5.616;2023-03-01T10:42:09;65.93;56.17;78.32;;
64545;Laerm;50936;51.660;5.616;2023-03-01T10:44:49;63.42;50.05;78.55;;
64545;Laerm;50936;51.660;5.616;2023-03-01T10:50:01;64.42;54.64;79.80;;
64545;Laerm;50936;51.660;5.616;2023-03-01T10:52:40;62.85;51.32;77.38;;
64545;Laerm;50936;51.660;5.616;2023-03-01T10:55:40;63.63;54.03;76.88;;
64545;Laerm;50936;51.660;5.616;2023-03-01T10:58:21;64.13;52.27;81.08;;
64545;Laerm;50936;51.660;5.616;2023-03-01T11:03:45;63.34;53.26;78.90;;
64545;Laerm;50936;51.660;5.616;2023-03-01T11:06:29;63.90;50.97;76.02;;
64545;Laerm;50936;51.660;5.616;2023-03-01T11:08:56;65.61;55.27;78.54;;
64545;Laerm;50936;51.660;5.616;2023-03-01T11:11:34;63.64;56.19;71.49;;
64545;Laerm;50936;51.660;5.616;2023-03-01T11:14:29;63.83;52.21;81.01;;
64545;Laerm;50936;51.660;5.616;2023-03-01T11:17:30;63.02;51.50;78.75;;
64545;Laerm;50936;51.660;5.616;2023-03-01T11:20:41;62.85;50.52;82.96;;
64545;Laerm;50936;51.660;5.616;2023-03-01T11:23:14;66.31;56.03;76.19;;
64545;Laerm;50936;51.660;5.616;2023-03-01T11:25:57;65.46;53.25;85.55;;
64545;Laerm;50936;51.660;5.616;2023-03-01T11:28:29;65.95;52.14;81.94;;
64545;Laerm;50936;51.660;5.616;2023-03-01T11:31:11;65.33;54.17;85.84;;
64545;Laerm;50936;51.660;5.616;2023-03-01T11:34:17;63.54;50.74;89.67;;
64545;Laerm;50936;51.660;5.616;2023-03-01T11:36:58;64.46;50.31;82.42;;
64545;Laerm;50936;51.660;5.616;2023-03-01T11:40:11;65.58;55.09;85.63;;
64545;Laerm;50936;51.660;5.616;2023-03-01T11:45:47;63.85;52.00;85.30;;
64545;Laerm;50936;51.660;5.616;2023-03-01T11:48:51;65.03;53.20;79.62;;
64545;Laerm;50936;51.660;5.616;2023-03-01T11:51:33;67.05;55.30;82.14;;
64545;Laerm;50936;51.660;5.616;2023-03-01T11:54:22;66.66;55.29;81.97;;
64545;Laerm;50936;51.660;5.616;2023-03-01T11:57:05;62.90;52.56;77.76;;
64545;Laerm;50936;51.660;5.616;2023-03-01T11:59:49;64.58;51.37;71.29;;
64545;Laerm;50936;51.660;5.616;2023-03-01T12:02:37;63.14;50.56;77.63;;
64545;Laerm;50936;51.660;5.616;2023-03-01T12:08:41;64.09;53.52;74.59;;
64545;Laerm;50936;51.660;5.616;2023-03-01T12:11:40;63.82;55.42;70.87;;
64545;Laerm;50936;51.660;5.616;2023-03-01T12:17:11;65.70;52.24;83.96;;
64545;Laerm;50936;51.660;5.616;2023-03-01T12:20:21;62.26;51.48;71.32;;
64545;Laerm;50936;51.660;5.616;2023-03-01T12:26:35;65.18;53.14;78.67;;
64545;Laerm;50936;51.660;5.616;2023-03-01T12:49:16;63.75;50.81;78.26;;
64545;Laerm;50936;51.660;5.616;2023-03-01T12:54:37;63.92;56.64;80.56;;
64545;Laerm;50936;51.660;5.616;2023-03-01T13:00:38;64.24;54.68;79.24;;
64545;Laerm;50936;51.660;5.616;2023-03-01T13:11:54;67.06;58.28;82.82;;
64545;Laerm;50936;51.660;5.616;2023-03-01T13:16:52;66.23;55.82;82.51;;
64545;Laerm;50936;51.660;5.616;2023-03-01T13:19:25;65.54;59.69;79.82;;
64545;Laerm;50936;51.660;5.616;2023-03-01T13:21:56;63.80;55.55;75.22;;
64545;Laerm;50936;51.660;5.616;2023-03-01T13:24:37;64.95;56.91;86.22;;
64545;Laerm;50936;51.660;5.616;2023-03-01T13:27:18;64.34;55.80;77.18;;
64545;Laerm;50936;51.660;5.616;2023-03-01T13:29:56;63.55;51.55;75.53;;
64545;Laerm;50936;51.660;5.616;2023-03-01T13:32:29;64.11;55.57;76.92;;
64545;Laerm;50936;51.660;5.616;2023-03-01T13:37:43;65.46;52.71;77.07;;
64545;Laerm;50936;51.660;5.616;2023-03-01T13:42:48;65.88;55.36;84.10;;
64545;Laerm;50936;51.660;5.616;2023-03-01T13:45:41;64.12;51.39;80.49;;
64545;Laerm;50936;51.660;5.616;2023-03-01T13:48:21;65.37;55.74;77.79;;
64545;Laerm;50936;51.660;5.616;2023-03-01T13:51:00;64.62;54.64;75.45;;
64545;Laerm;50936;51.660;5.616;2023-03-01T13:53:38;61.67;52.55;74.68;;
64545;Laerm;50936;51.660;5.616;2023-03-01T13:56:28;63.82;55.19;76.79;;
64545;Laerm;50936;51.660;5.616;2023-03-01T14:01:36;63.99;52.55;78.18;;
64545;Laerm;50936;51.660;5.616;2023-03-01T14:04:19;64.34;52.43;82.70;;
64545;Laerm;50936;51.660;5.616;2023-03-01T14:06:46;63.68;52.03;72.34;;
64545;Laerm;50936;51.660;5.616;2023-03-01T14:09:23;65.52;55.09;75.47;;
64545;Laerm;50936;51.660;5.616;2023-03-01T14:15:29;64.75;52.86;83.72;;
64545;Laerm;50936;51.660;5.616;2023-03-01T14:18:24;64.45;52.41;77.34;;
64545;Laerm;50936;51.660;5.616;2023-03-01T14:20:53;65.76;55.02;80.09;;
64545;Laerm;50936;51.660;5.616;2023-03-01T14:23:23;65.21;54.63;79.33;;
64545;Laerm;50936;51.660;5.616;2023-03-01T14:25:57;64.67;55.64;78.24;;
64545;Laerm;50936;51.660;5.616;2023-03-01T14:28:29;65.21;53.73;81.42;;
64545;Laerm;50936;51.660;5.616;2023-03-01T14:31:01;65.08;55.45;78.90;;
64545;Laerm;50936;51.660;5.616;2023-03-01T14:33:36;65.35;56.02;77.21;;
64545;Laerm;50936;51.660;5.616;2023-03-01T14:36:10;64.68;50.67;81.89;;
64545;Laerm;50936;51.660;5.616;2023-03-01T14:38:44;63.99;50.97;72.36;;
64545;Laerm;50936;51.660;5.616;2023-03-01T14:41:19;64.33;53.37;75.86;;
64545;Laerm;50936;51.660;5.616;2023-03-01T14:43:52;64.22;57.35;73.61;;
64545;Laerm;50936;51.660;5.616;2023-03-01T14:49:25;65.46;50.11;75.80;;
64545;Laerm;50936;51.660;5.616;2023-03-01T14:52:07;63.74;52.06;73.88;;
64545;Laerm;50936;51.660;5.616;2023-03-01T14:54:51;65.25;54.83;78.19;;
64545;Laerm;50936;51.660;5.616;2023-03-01T14:57:26;63.24;53.16;76.29;;
64545;Laerm;50936;51.660;5.616;2023-03-01T15:00:03;63.78;54.19;72.44;;
64545;Laerm;50936;51.660;5.616;2023-03-01T15:02:34;65.79;57.60;77.39;;
64545;Laerm;50936;51.660;5.616;2023-03-01T15:05:03;65.12;53.18;79.90;;
64545;Laerm;50936;51.660;5.616;2023-03-01T15:07:40;64.71;53.57;77.08;;
64545;Laerm;50936;51.660;5.616;2023-03-01T15:10:22;65.01;56.78;77.65;;
64545;Laerm;50936;51.660;5.616;2023-03-01T15:12:50;65.72;54.38;77.39;;
64545;Laerm;50936;51.660;5.616;2023-03-01T15:17:59;63.59;52.09;77.35;;
64545;Laerm;50936;51.660;5.616;2023-03-01T15:20:28;64.61;54.97;80.11;;
64545;Laerm;50936;51.660;5.616;2023-03-01T15:22:57;65.74;55.44;81.72;;
64545;Laerm;50936;51.660;5.616;2023-03-01T15:25:29;65.95;56.71;79.89;;
64545;Laerm;50936;51.660;5.616;2023-03-01T15:28:00;63.92;53.76;80.83;;
64545;Laerm;50936;51.660;5.616;2023-03-01T15:30:33;65.73;53.32;73.90;;
64545;Laerm;50936;51.660;5.616;2023-03-01T15:33:34;63.08;50.85;73.90;;
64545;Laerm;50936;51.660;5.616;2023-03-01T15:36:30;63.81;54.11;80.59;;
64545;Laerm;50936;51.660;5.616;2023-03-01T15:38:59;64.34;56.41;73.52;;
64545;Laerm;50936;51.660;5.616;2023-03-01T15:41:29;64.62;55.08;75.50;;
64545;Laerm;50936;51.660;5.616;2023-03-01T15:44:17;63.56;54.43;74.34;;
64545;Laerm;50936;51.660;5.616;2023-03-01T15:46:47;63.71;53.68;73.09;;
64545;Laerm;50936;51.660;5.616;2023-03-01T15:51:55;65.35;52.91;75.03;;
64545;Laerm;50936;51.660;5.616;2023-03-01T15:54:25;65.09;56.95;77.64;;
64545;Laerm;50936;51.660;5.616;2023-03-01T15:56:53;63.89;56.37;71.42;;